ADDS TAF Board (Experimental) INFO Settings
IDs: Format: Expanded Condensed

KSLC - Salt Lake City Intl, UT, US

Issued at 2332 UTC 26 Sep 2016
Updated at 0151 UTC 27 Sep 2016
Time0054Z 27/02Z 27/03Z 27/04Z 27/05Z 27/06Z 27/07Z 27/08Z 27/09Z 27/10Z 27/11Z 27/12Z 27/13Z 27/14Z
Type OBS PRVL PRVL PRVL PRVL PRVL PRVL PRVL PRVL PRVL PRVL PRVL PRVL PRVL
VIS 10 >6 >6 >6 >6 >6 >6 >6 >6 >6 >6 >6 >6 >6
CIG -- -- -- -- -- -- -- -- -- -- -- -- -- --
Cover FEW SKC SKC SKC SKC SKC SKC SKC SKC SKC SKC SKC SKC SKC
FltCat VFR VFR VFR VFR VFR VFR VFR VFR VFR VFR VFR VFR VFR VFR
WX -- -- -- -- -- -- -- -- -- -- -- -- -- --
WDir 280 330 330 150 150 150 150 150 150 150 150 150 150 150
WSpd 7 7 7 6 6 6 6 6 6 6 6 6 6 6
WGst -- -- -- -- -- -- -- -- -- -- -- -- -- --
R14/32
XWnd -6 -0 -0 0 0 0 0 0 0 0 0 0 0 0
HWnd -4 -7 -7 6 6 6 6 6 6 6 6 6 6 6
R16/34
XWnd -7 -3 -3 3 3 3 3 3 3 3 3 3 3 3
HWnd -2 -6 -6 5 5 5 5 5 5 5 5 5 5 5
R17/35
XWnd -7 -4 -4 3 3 3 3 3 3 3 3 3 3 3
HWnd -1 -6 -6 5 5 5 5 5 5 5 5 5 5 5
RHB/18
XWnd 7 4 4 -3 -3 -3 -3 -3 -3 -3 -3 -3 -3 -3
HWnd 1 6 6 -5 -5 -5 -5 -5 -5 -5 -5 -5 -5 -5

Raw TAF
KSLC 262332Z 2700/2806 33007KT P6SM SKC
  FM270400 15006KT P6SM SKC
  FM271800 33007KT P6SM SKC
  FM280400 16006KT P6SM SKC


Raw METAR
KSLC 270054Z 28007KT 10SM FEW230 20/09 A3026 RMK AO2 SLP218 T02000089
KSLC 262354Z 31007KT 10SM FEW230 22/10 A3027 RMK AO2 SLP219 T02170100 10222 20183 57018
KSLC 262254Z 32008KT 10SM FEW230 22/10 A3029 RMK AO2 SLP224 T02220100

METAR Board
Radar Display
Forecast Discussion

TAF Board Legend

Potential Impact
Threat None Slight Moderate High
Visibility (sm) ≥5.1 5.1>X≥3 3>X≥1 <1
Ceiling (100 ft) ≥30.1 30.1>X≥10 10>X≥5 <5
Wind Speed (kt) <10 10≤X<20 20≤X<30 ≥30
Wind Gust (kt) <15 15≤X<25 25≤X<35 ≥35
Weather No Wx Reported VCTS,-TS,-FZRA,SN TS,FZRA +TS,+FZRA,+SN